createdAt,value
2022-12-05T00:02:13.832Z,97956.94
2022-12-05T00:04:45.369Z,97956.13
2022-12-05T00:07:16.055Z,97940.59
2022-12-05T00:09:46.379Z,97950.36
2022-12-05T00:12:16.493Z,97968.38
2022-12-05T00:14:46.757Z,97959.39
2022-12-05T00:17:16.924Z,97971.64
2022-12-05T00:19:49.080Z,97973.83
2022-12-05T00:22:19.511Z,97975.96
2022-12-05T00:24:49.807Z,97977.55
2022-12-05T00:27:21.771Z,97970.46
2022-12-05T00:29:51.775Z,97971.00
2022-12-05T00:32:24.358Z,97971.55
2022-12-05T00:34:56.377Z,97957.07
2022-12-05T00:37:31.473Z,97958.92
2022-12-05T00:40:01.772Z,97966.05
2022-12-05T00:42:32.039Z,97957.56
2022-12-05T00:45:02.534Z,97952.42
2022-12-05T00:47:32.869Z,97949.94
2022-12-05T00:50:03.095Z,97950.48
2022-12-05T00:52:33.580Z,97933.00
2022-12-05T00:55:03.983Z,97930.83
2022-12-05T00:57:36.726Z,97933.80
2022-12-05T01:00:07.503Z,97918.52
2022-12-05T01:02:37.761Z,97915.75
2022-12-05T01:05:08.608Z,97915.47
2022-12-05T01:07:39.305Z,97923.63
2022-12-05T01:10:13.396Z,97930.98
2022-12-05T01:12:44.398Z,97936.66
2022-12-05T01:15:15.461Z,97939.38
2022-12-05T01:17:46.035Z,97928.48
2022-12-05T01:20:16.194Z,97947.55
2022-12-05T01:22:46.463Z,97952.72
2022-12-05T01:25:16.789Z,97908.02
2022-12-05T01:27:48.214Z,97897.39
2022-12-05T01:30:18.752Z,97906.61
2022-12-05T01:32:49.071Z,97915.03
2022-12-05T01:35:19.179Z,97945.21
2022-12-05T01:37:52.134Z,97934.32
2022-12-05T01:40:22.690Z,97925.61
2022-12-05T01:42:52.815Z,97923.97
2022-12-05T01:45:42.363Z,97916.34
2022-12-05T01:48:21.545Z,97912.75
2022-12-05T01:50:52.075Z,97889.79
2022-12-05T01:53:22.548Z,97915.66
2022-12-05T01:55:54.932Z,97930.94
2022-12-05T01:58:42.748Z,97914.29
2022-12-05T02:01:04.493Z,97899.81
2022-12-05T02:04:01.251Z,97903.07
2022-12-05T02:06:32.975Z,97906.84
2022-12-05T02:09:05.839Z,97913.91
2022-12-05T02:12:08.098Z,97889.13
2022-12-05T02:14:41.492Z,97907.33
2022-12-05T02:17:26.352Z,97902.69
2022-12-05T02:20:02.333Z,97907.28
2022-12-05T02:23:03.666Z,97911.30
2022-12-05T02:25:54.391Z,97895.29
2022-12-05T02:28:44.056Z,97912.16
2022-12-05T02:31:23.021Z,97882.45
2022-12-05T02:33:55.716Z,97871.83
2022-12-05T02:36:37.631Z,97878.31
2022-12-05T02:39:29.207Z,97906.07
2022-12-05T02:42:06.453Z,97899.22
2022-12-05T02:44:45.540Z,97918.70
2022-12-05T02:47:16.596Z,97904.33
2022-12-05T02:50:13.766Z,97902.20
2022-12-05T02:52:51.090Z,97904.37
2022-12-05T02:55:21.989Z,97886.97
2022-12-05T02:57:54.755Z,97872.81
2022-12-05T03:00:25.397Z,97879.63
2022-12-05T03:02:58.254Z,97844.55
2022-12-05T03:05:50.232Z,97844.59
2022-12-05T03:22:50.470Z,97862.70
2022-12-05T03:25:20.639Z,97862.70
2022-12-05T03:27:55.662Z,97844.19
2022-12-05T03:30:26.166Z,97841.00
2022-12-05T03:32:59.304Z,97866.39
2022-12-05T03:35:41.193Z,97862.66
2022-12-05T03:38:16.795Z,97865.73
2022-12-05T03:40:55.696Z,97852.47
2022-12-05T03:43:40.165Z,97843.56
2022-12-05T03:46:22.368Z,97841.74
2022-12-05T03:49:01.169Z,97835.52
2022-12-05T03:51:45.875Z,97835.09
2022-12-05T03:54:27.560Z,97828.59
2022-12-05T03:57:12.567Z,97833.07
2022-12-05T03:59:50.160Z,97832.60
2022-12-05T04:02:28.831Z,97811.66
2022-12-05T04:05:10.431Z,97810.33
2022-12-05T04:07:43.459Z,97804.05
2022-12-05T04:10:19.705Z,97799.45
2022-12-05T04:12:50.147Z,97769.94
2022-12-05T04:15:29.250Z,97768.64
2022-12-05T04:18:02.745Z,97770.59
2022-12-05T04:20:57.767Z,97761.63
2022-12-05T04:23:28.267Z,97741.99
2022-12-05T04:26:07.119Z,97736.30
2022-12-05T04:28:51.544Z,97740.39
2022-12-05T04:31:30.035Z,97730.84
2022-12-05T04:34:06.249Z,97726.21
2022-12-05T04:36:47.314Z,97720.21
2022-12-05T04:39:38.112Z,97726.75
2022-12-05T04:42:10.978Z,97728.66
2022-12-05T04:44:44.483Z,97729.21
2022-12-05T04:47:16.151Z,97703.69
2022-12-05T04:49:53.483Z,97703.69
2022-12-05T04:52:21.982Z,97729.48
2022-12-05T04:55:04.100Z,97724.27
2022-12-05T04:57:48.783Z,97716.63
2022-12-05T05:00:19.634Z,97728.91
2022-12-05T05:02:58.647Z,97730.27
2022-12-05T05:05:28.932Z,97721.78
2022-12-05T05:07:59.469Z,97725.36
2022-12-05T05:10:44.121Z,97729.69
2022-12-05T05:13:15.006Z,97719.56
2022-12-05T05:15:45.371Z,97713.02
2022-12-05T05:18:15.718Z,97708.39
2022-12-05T05:20:45.978Z,97717.93
2022-12-05T05:23:16.206Z,97714.93
2022-12-05T05:25:46.394Z,97713.27
2022-12-05T05:28:16.647Z,97707.53
2022-12-05T05:30:46.856Z,97700.14
2022-12-05T05:33:17.379Z,97707.50
2022-12-05T05:35:47.683Z,97719.77
2022-12-05T05:38:17.833Z,97712.38
2022-12-05T05:40:48.097Z,97713.74
2022-12-05T05:43:18.496Z,97709.38
2022-12-05T05:45:48.715Z,97714.02
2022-12-05T05:48:18.870Z,97706.08
2022-12-05T05:50:49.217Z,97696.77
2022-12-05T05:53:19.253Z,97697.86
2022-12-05T05:55:49.437Z,97694.86
2022-12-05T05:58:19.909Z,97681.48
2022-12-05T06:00:51.442Z,97667.03
2022-12-05T06:03:21.741Z,97672.20
2022-12-05T06:05:59.982Z,97657.22
2022-12-05T06:08:31.950Z,97630.20
2022-12-05T06:11:02.177Z,97620.90
2022-12-05T06:13:32.431Z,97613.81
2022-12-05T06:16:02.570Z,97610.52
2022-12-05T06:18:32.638Z,97596.38
2022-12-05T06:21:02.975Z,97585.71
2022-12-05T06:23:33.467Z,97582.71
2022-12-05T06:26:03.729Z,97576.95
2022-12-05T06:28:36.514Z,97569.06
2022-12-05T06:31:11.734Z,97575.02
2022-12-05T06:33:42.089Z,97558.85
2022-12-05T06:36:14.683Z,97568.18
2022-12-05T06:38:45.367Z,97565.70
2022-12-05T06:41:18.094Z,97558.06
2022-12-05T06:43:49.498Z,97557.80
2022-12-05T06:46:20.287Z,97554.25
2022-12-05T06:48:50.978Z,97545.80
2022-12-05T06:51:21.058Z,97534.33
2022-12-05T06:53:51.564Z,97536.48
2022-12-05T06:56:22.267Z,97536.48
2022-12-05T06:58:54.261Z,97538.11
2022-12-05T07:01:43.604Z,97534.00
2022-12-05T07:04:17.250Z,97529.06
2022-12-05T07:06:50.814Z,97512.41
2022-12-05T07:09:19.596Z,97504.52
2022-12-05T07:11:50.955Z,97491.44
2022-12-05T07:16:53.293Z,97474.22
2022-12-05T07:19:23.801Z,97465.75
2022-12-05T07:21:54.043Z,97464.11
2022-12-05T07:24:24.406Z,97458.36
2022-12-05T07:26:54.784Z,97446.38
2022-12-05T07:29:25.036Z,97441.98
2022-12-05T07:31:56.593Z,97431.37
2022-12-05T07:34:27.223Z,97419.11
2022-12-05T07:36:57.435Z,97409.27
2022-12-05T07:39:27.672Z,97416.91
2022-12-05T07:41:58.084Z,97424.23
2022-12-05T07:44:28.387Z,97423.41
2022-12-05T07:46:58.668Z,97419.05
2022-12-05T07:49:28.975Z,97420.96
2022-12-05T07:51:59.279Z,97430.19
2022-12-05T07:54:29.648Z,97453.86
2022-12-05T07:56:59.933Z,97465.30
2022-12-05T07:59:30.288Z,97463.66
2022-12-05T08:02:00.691Z,97445.66
2022-12-05T08:04:32.608Z,97429.05
2022-12-05T08:07:02.672Z,97423.30
2022-12-05T08:09:35.790Z,97417.58
2022-12-05T08:12:05.998Z,97420.03
2022-12-05T08:14:36.346Z,97415.64
2022-12-05T08:17:06.639Z,97413.47
2022-12-05T08:19:37.159Z,97405.58
2022-12-05T08:22:07.299Z,97393.02
2022-12-05T08:24:40.523Z,97391.38
2022-12-05T08:27:11.231Z,97406.91
2022-12-05T08:29:41.784Z,97403.06
2022-12-05T08:32:12.406Z,97409.59
2022-12-05T08:34:43.291Z,97407.94
2022-12-05T08:37:14.752Z,97401.04
2022-12-05T08:39:46.999Z,97400.02
2022-12-05T08:42:18.003Z,97395.92
2022-12-05T08:44:48.293Z,97373.33
2022-12-05T08:47:18.449Z,97367.04
2022-12-05T08:49:48.804Z,97372.21
2022-12-05T08:52:19.191Z,97382.83
2022-12-05T08:54:49.483Z,97388.79
2022-12-05T08:57:19.720Z,97377.36
2022-12-05T08:59:50.351Z,97362.63
2022-12-05T09:02:20.531Z,97359.09
2022-12-05T09:04:54.882Z,97353.64
2022-12-05T09:07:24.958Z,97356.09
2022-12-05T09:09:55.213Z,97356.88
2022-12-05T09:12:25.417Z,97361.51
2022-12-05T09:14:56.398Z,97361.20
2022-12-05T09:17:26.636Z,97360.39
2022-12-05T09:19:56.891Z,97349.23
2022-12-05T09:22:27.128Z,97350.02
2022-12-05T09:24:57.584Z,97353.56
2022-12-05T09:27:28.073Z,97351.11
2022-12-05T09:29:58.026Z,97348.91
2022-12-05T09:32:28.211Z,97355.67
2022-12-05T09:34:58.467Z,97370.13
2022-12-05T09:37:39.323Z,97364.38
2022-12-05T09:40:00.494Z,97374.19
2022-12-05T09:42:51.738Z,97372.28
2022-12-05T09:45:24.968Z,97363.84
2022-12-05T09:48:09.747Z,97340.41
2022-12-05T09:50:48.522Z,97345.27
2022-12-05T09:53:31.608Z,97323.23
2022-12-05T09:56:08.600Z,97320.24
2022-12-05T09:58:47.230Z,97302.55
2022-12-05T10:01:42.724Z,97285.92
2022-12-05T10:04:31.830Z,97282.66
2022-12-05T10:07:04.864Z,97276.91
2022-12-05T10:10:14.527Z,97262.49
2022-12-05T10:13:01.202Z,97245.90
2022-12-05T10:15:36.843Z,97237.44
2022-12-05T10:18:09.836Z,97237.16
2022-12-05T10:20:54.728Z,97229.25
2022-12-05T10:23:55.983Z,97233.33
2022-12-05T10:26:00.977Z,97227.07
2022-12-05T10:28:42.219Z,97208.55
2022-12-05T10:31:14.673Z,97193.03
2022-12-05T10:33:51.756Z,97188.35
2022-12-05T10:36:22.323Z,97189.20
2022-12-05T10:38:52.644Z,97186.72
2022-12-05T10:41:23.035Z,97178.29
2022-12-05T10:48:52.161Z,97220.44
2022-12-05T10:54:25.463Z,97159.47
2022-12-05T10:56:55.972Z,97181.77
2022-12-05T10:59:28.168Z,97216.33
2022-12-05T11:02:00.151Z,97214.66
2022-12-05T11:04:47.240Z,97201.06
2022-12-05T11:07:34.736Z,97194.23
2022-12-05T11:10:07.093Z,97179.27
2022-12-05T11:12:39.518Z,97169.75
2022-12-05T11:15:22.545Z,97186.35
2022-12-05T11:17:53.083Z,97194.75
2022-12-05T11:20:26.228Z,97194.20
2022-12-05T11:22:57.209Z,97196.11
2022-12-05T11:25:35.507Z,97182.24
2022-12-05T11:28:20.584Z,97169.19
2022-12-05T11:31:15.735Z,97175.69
2022-12-05T11:33:45.341Z,97174.06
2022-12-05T11:36:22.979Z,97157.49
2022-12-05T11:38:54.522Z,97151.56
2022-12-05T11:41:33.354Z,97154.30
2022-12-05T11:44:09.282Z,97149.95
2022-12-05T11:46:53.931Z,97149.19
2022-12-05T11:49:40.336Z,97133.67
2022-12-05T11:52:25.331Z,97142.23
2022-12-05T11:55:20.920Z,97140.37
2022-12-05T11:57:59.582Z,97136.30
2022-12-05T12:00:41.326Z,97139.31
2022-12-05T12:03:37.077Z,97145.13
2022-12-05T12:06:19.233Z,97135.63
2022-12-05T12:08:57.759Z,97142.48
2022-12-05T12:11:48.646Z,97136.27
2022-12-05T12:14:24.573Z,97148.55
2022-12-05T12:17:17.378Z,97147.52
2022-12-05T12:20:20.896Z,97141.56
2022-12-05T12:23:13.077Z,97135.88
2022-12-05T12:26:14.537Z,97140.30
2022-12-05T12:28:59.401Z,97143.88
2022-12-05T12:31:41.486Z,97152.11
2022-12-05T12:34:21.097Z,97146.42
2022-12-05T12:36:53.565Z,97136.10
2022-12-05T12:39:50.250Z,97133.11
2022-12-05T12:42:31.468Z,97150.30
2022-12-05T12:45:10.246Z,97150.32
2022-12-05T12:47:59.360Z,97154.44
2022-12-05T12:50:31.923Z,97150.36
2022-12-05T12:53:24.133Z,97140.83
2022-12-05T12:56:02.790Z,97144.97
2022-12-05T12:58:38.584Z,97135.16
2022-12-05T13:01:20.913Z,97137.35
2022-12-05T13:03:54.104Z,97144.73
2022-12-05T13:06:33.371Z,97148.84
2022-12-05T13:09:12.308Z,97147.73
2022-12-05T13:11:43.715Z,97138.20
2022-12-05T13:14:18.685Z,97136.28
2022-12-05T13:16:51.024Z,97139.83
2022-12-05T13:19:33.915Z,97122.10
2022-12-05T13:22:03.959Z,97114.17
2022-12-05T13:24:34.448Z,97122.11
2022-12-05T13:27:11.400Z,97120.45
2022-12-05T13:30:09.376Z,97117.17
2022-12-05T13:32:38.502Z,97114.73
2022-12-05T13:35:12.855Z,97106.58
2022-12-05T13:38:07.274Z,97104.36
2022-12-05T13:40:56.839Z,97096.72
2022-12-05T13:43:29.141Z,97074.05
2022-12-05T13:46:02.196Z,97070.47
2022-12-05T13:48:33.301Z,97050.28
2022-12-05T13:51:11.582Z,97040.41
2022-12-05T13:53:44.787Z,97033.87
2022-12-05T13:56:18.564Z,97036.56
2022-12-05T13:59:00.922Z,97045.29
2022-12-05T14:01:56.077Z,97057.31
2022-12-05T14:04:28.134Z,97077.49
2022-12-05T14:07:01.239Z,97086.23
2022-12-05T14:09:32.551Z,97089.22
2022-12-05T14:12:17.456Z,97096.84
2022-12-05T14:15:02.704Z,97085.91
2022-12-05T14:17:33.441Z,97058.82
2022-12-05T14:20:28.424Z,97029.63
2022-12-05T14:23:26.691Z,97056.66
2022-12-05T14:26:08.528Z,97042.71
2022-12-05T14:29:08.067Z,97029.31
2022-12-05T14:31:52.939Z,97038.37
2022-12-05T14:34:30.864Z,97069.80
2022-12-05T14:37:03.290Z,97072.53
2022-12-05T14:39:51.767Z,97063.79
2022-12-05T14:42:33.779Z,97069.26
2022-12-05T14:45:05.073Z,97055.30
2022-12-05T14:47:35.552Z,97056.97
2022-12-05T14:50:24.311Z,97071.70
2022-12-05T14:53:24.500Z,97081.56
2022-12-05T14:56:17.082Z,97072.26
2022-12-05T14:59:05.485Z,97076.36
2022-12-05T15:01:43.165Z,97084.55
2022-12-05T15:04:27.421Z,97074.73
2022-12-05T15:07:06.592Z,97078.83
2022-12-05T15:09:54.362Z,97083.75
2022-12-05T15:12:30.116Z,97082.94
2022-12-05T15:15:08.531Z,97050.70
2022-12-05T15:17:50.145Z,97050.41
2022-12-05T15:20:23.341Z,97077.48
2022-12-05T15:22:53.393Z,97115.48
2022-12-05T15:25:25.045Z,97099.08
2022-12-05T15:28:03.926Z,97075.56
2022-12-05T15:30:34.511Z,97045.25
2022-12-05T15:33:04.551Z,97040.34
2022-12-05T15:35:35.312Z,97080.52
2022-12-05T15:38:27.543Z,97099.35
2022-12-05T15:40:56.021Z,97097.44
2022-12-05T15:43:32.238Z,97088.98
2022-12-05T15:46:13.914Z,97073.15
2022-12-05T15:48:44.228Z,97074.22
2022-12-05T15:51:14.998Z,97062.48
2022-12-05T15:53:48.544Z,97039.27
2022-12-05T15:56:29.542Z,97055.11
2022-12-05T15:59:04.236Z,97046.66
2022-12-05T16:01:35.809Z,97040.64
2022-12-05T16:04:11.507Z,97052.68
2022-12-05T16:06:45.634Z,97061.14
2022-12-05T16:09:24.459Z,97071.00
2022-12-05T16:12:05.779Z,97085.47
2022-12-05T16:17:11.740Z,97085.47
2022-12-05T16:19:42.546Z,97090.38
2022-12-05T16:22:27.351Z,97092.05
2022-12-05T16:25:02.377Z,97089.02
2022-12-05T16:27:37.806Z,97082.48
2022-12-05T16:30:22.838Z,97084.94
2022-12-05T16:32:55.067Z,97077.30
2022-12-05T16:35:43.660Z,97075.11
2022-12-05T16:38:28.246Z,97068.03
2022-12-05T16:41:03.463Z,97066.11
2022-12-05T16:43:36.282Z,97066.66
2022-12-05T16:46:21.985Z,97059.84
2022-12-05T16:48:52.426Z,97072.69
2022-12-05T16:51:26.352Z,97066.38
2022-12-05T16:53:56.944Z,97071.58
2022-12-05T16:56:32.916Z,97052.21
2022-12-05T16:59:07.507Z,97050.03
2022-12-05T17:01:39.340Z,97049.74
2022-12-05T17:04:11.835Z,97045.09
2022-12-05T17:06:43.217Z,97041.29
2022-12-05T17:09:14.325Z,97024.91
2022-12-05T17:11:46.221Z,97019.72
2022-12-05T17:14:17.696Z,97013.99
2022-12-05T17:16:47.951Z,97014.25
2022-12-05T17:19:18.455Z,97003.07
2022-12-05T17:21:48.650Z,97003.63
2022-12-05T17:24:19.600Z,96997.32
2022-12-05T17:26:49.815Z,96993.52
2022-12-05T17:29:19.845Z,96988.06
2022-12-05T17:31:50.171Z,96981.79
2022-12-05T17:34:20.628Z,96971.13
2022-12-05T17:36:50.803Z,96971.13
2022-12-05T17:39:27.892Z,96977.14
2022-12-05T17:41:54.219Z,96963.23
2022-12-05T17:44:24.219Z,96959.14
2022-12-05T17:46:54.741Z,96960.22
2022-12-05T17:49:25.810Z,96959.41
2022-12-05T17:52:21.121Z,96946.86
2022-12-05T17:54:27.697Z,96944.66
2022-12-05T17:56:57.857Z,96952.84
2022-12-05T17:59:27.922Z,96934.84
2022-12-05T18:01:58.015Z,96917.89
2022-12-05T18:04:28.232Z,96907.52
2022-12-05T18:06:58.263Z,96901.25
2022-12-05T18:12:10.510Z,96884.89
2022-12-05T18:14:40.889Z,96889.23
2022-12-05T18:17:11.279Z,96883.77
2022-12-05T18:19:41.539Z,96872.05
2022-12-05T18:22:13.731Z,96870.42
2022-12-05T18:24:44.073Z,96870.42
2022-12-05T18:27:14.251Z,96853.25
2022-12-05T18:29:44.424Z,96849.41
2022-12-05T18:32:15.242Z,96848.59
2022-12-05T18:34:46.821Z,96845.06
2022-12-05T18:37:18.761Z,96840.42
2022-12-05T18:39:49.518Z,96846.95
2022-12-05T18:42:19.954Z,96830.87
2022-12-05T18:44:50.317Z,96821.87
2022-12-05T18:47:21.268Z,96820.50
2022-12-05T18:49:51.409Z,96822.42
2022-12-05T18:52:22.430Z,96818.85
2022-12-05T18:55:09.320Z,96813.95
2022-12-05T18:57:26.210Z,96809.59
2022-12-05T18:59:56.486Z,96815.86
2022-12-05T19:02:27.117Z,96805.76
2022-12-05T19:04:57.532Z,96810.96
2022-12-05T19:07:27.891Z,96801.13
2022-12-05T19:09:58.197Z,96795.95
2022-12-05T19:12:28.421Z,96788.31
2022-12-05T19:14:58.595Z,96786.11
2022-12-05T19:17:29.179Z,96773.83
2022-12-05T19:19:59.680Z,96771.39
2022-12-05T19:22:31.125Z,96767.84
2022-12-05T19:25:02.052Z,96764.83
2022-12-05T19:27:33.996Z,96769.48
2022-12-05T19:30:09.173Z,96761.30
2022-12-05T19:32:39.838Z,96757.45
2022-12-05T19:35:07.724Z,96748.46
2022-12-05T19:37:37.607Z,96747.09
2022-12-05T19:40:09.945Z,96735.62
2022-12-05T19:42:40.262Z,96743.55
2022-12-05T19:45:16.397Z,96737.55
2022-12-05T19:47:43.671Z,96726.63
2022-12-05T19:50:15.809Z,96727.99
2022-12-05T19:52:46.765Z,96724.45
2022-12-05T19:55:17.097Z,96720.10
2022-12-05T19:57:47.552Z,96720.62
2022-12-05T20:00:19.719Z,96726.92
2022-12-05T20:02:50.593Z,96719.27
2022-12-05T20:05:20.627Z,96719.55
2022-12-05T20:07:50.643Z,96710.80
2022-12-05T20:10:21.400Z,96711.92
2022-12-05T20:12:51.739Z,96706.46
2022-12-05T20:15:22.476Z,96707.83
2022-12-05T20:17:53.435Z,96705.91
2022-12-05T20:20:23.896Z,96698.80
2022-12-05T20:22:53.959Z,96697.43
2022-12-05T20:25:23.957Z,96696.91
2022-12-05T20:27:54.080Z,96696.91
2022-12-05T20:30:24.298Z,96684.63
2022-12-05T20:32:54.971Z,96679.42
2022-12-05T20:35:25.273Z,96682.96
2022-12-05T20:37:55.596Z,96685.99
2022-12-05T20:40:25.793Z,96681.05
2022-12-05T20:42:55.895Z,96681.59
2022-12-05T20:45:26.224Z,96678.31
2022-12-05T20:47:59.396Z,96679.16
2022-12-05T20:50:32.374Z,96672.58
2022-12-05T20:53:02.712Z,96671.77
2022-12-05T20:55:32.812Z,96671.22
2022-12-05T20:58:05.280Z,96672.03
2022-12-05T21:00:34.769Z,96669.30
2022-12-05T21:03:04.752Z,96666.86
2022-12-05T21:05:36.616Z,96666.57
2022-12-05T21:08:07.206Z,96672.31
2022-12-05T21:10:37.650Z,96674.73
2022-12-05T21:13:07.786Z,96674.47
2022-12-05T21:15:38.907Z,96684.83
2022-12-05T21:18:12.134Z,96678.81
2022-12-05T21:20:42.567Z,96673.36
2022-12-05T21:23:13.293Z,96682.34
2022-12-05T21:25:44.142Z,96679.36
2022-12-05T21:28:15.143Z,96683.70
2022-12-05T21:30:45.783Z,96682.07
2022-12-05T21:33:17.475Z,96685.61
2022-12-05T21:35:58.202Z,96677.67
2022-12-05T21:38:28.352Z,96687.78
2022-12-05T21:41:00.260Z,96691.33
2022-12-05T21:43:31.893Z,96690.52
2022-12-05T21:46:02.007Z,96698.70
2022-12-05T21:48:32.096Z,96704.97
2022-12-05T21:51:02.198Z,96703.05
2022-12-05T21:53:32.260Z,96710.97
2022-12-05T21:56:24.444Z,96706.05
2022-12-05T21:58:53.189Z,96708.77
2022-12-05T22:01:29.943Z,96709.84
2022-12-05T22:04:00.995Z,96719.67
2022-12-05T22:06:32.434Z,96724.58
2022-12-05T22:09:02.994Z,96728.12
2022-12-05T22:11:33.578Z,96729.22
2022-12-05T22:14:03.922Z,96734.12
2022-12-05T22:16:34.406Z,96733.00
2022-12-05T22:19:04.817Z,96698.17
2022-12-05T22:21:35.432Z,96727.27
2022-12-05T22:24:05.655Z,96723.44
2022-12-05T22:26:38.770Z,96728.63
2022-12-05T22:29:08.983Z,96726.70
2022-12-05T22:31:42.084Z,96725.59
2022-12-05T22:34:12.409Z,96732.70
2022-12-05T22:36:42.841Z,96732.70
2022-12-05T22:39:14.592Z,96727.75
2022-12-05T22:41:45.488Z,96722.03
2022-12-05T22:44:16.259Z,96725.00
2022-12-05T22:46:47.856Z,96725.30
2022-12-05T22:49:23.760Z,96731.27
2022-12-05T22:51:51.043Z,96730.19
2022-12-05T22:54:24.699Z,96728.82
2022-12-05T22:56:53.309Z,96731.25
2022-12-05T22:59:23.619Z,96734.82
2022-12-05T23:01:54.067Z,96736.44
2022-12-05T23:04:25.365Z,96739.98
2022-12-05T23:07:02.398Z,96743.80
2022-12-05T23:09:32.850Z,96747.61
2022-12-05T23:12:03.805Z,96750.34
2022-12-05T23:14:35.761Z,96742.16
2022-12-05T23:17:06.813Z,96750.34
2022-12-05T23:19:37.114Z,96755.81
2022-12-05T23:22:07.331Z,96756.09
2022-12-05T23:24:39.012Z,96754.98
2022-12-05T23:29:50.036Z,96763.16
2022-12-05T23:32:26.035Z,96770.30
2022-12-05T23:34:56.407Z,96773.55
2022-12-05T23:37:29.592Z,96776.27
2022-12-05T23:40:01.493Z,96779.81
2022-12-05T23:42:31.773Z,96785.02
2022-12-05T23:45:06.515Z,96782.04
2022-12-05T23:47:38.227Z,96781.75
2022-12-05T23:50:11.166Z,96782.31
2022-12-05T23:52:42.909Z,96783.13
2022-12-05T23:55:35.580Z,96793.52
